sensor_id;sensor_type;location;lat;lon;timestamp;P1;durP1;ratioP1;P2;durP2;ratioP2
5559;SDS011;2803;47.916;8.074;2023-05-07T00:01:27;4.00;;;2.43;;
5559;SDS011;2803;47.916;8.074;2023-05-07T00:03:54;3.47;;;2.33;;
5559;SDS011;2803;47.916;8.074;2023-05-07T00:06:22;3.50;;;2.60;;
5559;SDS011;2803;47.916;8.074;2023-05-07T00:08:51;2.80;;;2.50;;
5559;SDS011;2803;47.916;8.074;2023-05-07T00:11:17;4.30;;;2.40;;
5559;SDS011;2803;47.916;8.074;2023-05-07T00:13:44;3.00;;;2.33;;
5559;SDS011;2803;47.916;8.074;2023-05-07T00:16:11;4.27;;;2.10;;
5559;SDS011;2803;47.916;8.074;2023-05-07T00:18:37;4.97;;;2.30;;
5559;SDS011;2803;47.916;8.074;2023-05-07T00:21:04;4.77;;;2.13;;
5559;SDS011;2803;47.916;8.074;2023-05-07T00:23:32;2.47;;;2.20;;
5559;SDS011;2803;47.916;8.074;2023-05-07T00:25:58;6.23;;;2.40;;
5559;SDS011;2803;47.916;8.074;2023-05-07T00:28:25;5.30;;;2.40;;
5559;SDS011;2803;47.916;8.074;2023-05-07T00:30:52;7.33;;;2.70;;
5559;SDS011;2803;47.916;8.074;2023-05-07T00:33:18;7.73;;;2.63;;
5559;SDS011;2803;47.916;8.074;2023-05-07T00:35:45;6.67;;;3.10;;
5559;SDS011;2803;47.916;8.074;2023-05-07T00:38:12;6.13;;;2.20;;
5559;SDS011;2803;47.916;8.074;2023-05-07T00:40:40;10.03;;;3.00;;
5559;SDS011;2803;47.916;8.074;2023-05-07T00:43:07;3.60;;;2.80;;
5559;SDS011;2803;47.916;8.074;2023-05-07T00:45:33;4.60;;;3.20;;
5559;SDS011;2803;47.916;8.074;2023-05-07T00:48:00;6.27;;;2.97;;
5559;SDS011;2803;47.916;8.074;2023-05-07T00:50:28;4.87;;;3.00;;
5559;SDS011;2803;47.916;8.074;2023-05-07T00:52:55;6.33;;;2.50;;
5559;SDS011;2803;47.916;8.074;2023-05-07T00:55:22;11.33;;;3.27;;
5559;SDS011;2803;47.916;8.074;2023-05-07T00:57:51;4.30;;;2.60;;
5559;SDS011;2803;47.916;8.074;2023-05-07T01:00:18;8.93;;;2.50;;
5559;SDS011;2803;47.916;8.074;2023-05-07T01:02:44;4.10;;;2.70;;
5559;SDS011;2803;47.916;8.074;2023-05-07T01:05:12;5.80;;;2.37;;
5559;SDS011;2803;47.916;8.074;2023-05-07T01:07:40;8.33;;;3.70;;
5559;SDS011;2803;47.916;8.074;2023-05-07T01:10:08;4.73;;;2.50;;
5559;SDS011;2803;47.916;8.074;2023-05-07T01:12:36;4.07;;;2.50;;
5559;SDS011;2803;47.916;8.074;2023-05-07T01:15:07;4.40;;;2.30;;
5559;SDS011;2803;47.916;8.074;2023-05-07T01:17:35;5.60;;;2.50;;
5559;SDS011;2803;47.916;8.074;2023-05-07T01:20:02;2.57;;;2.23;;
5559;SDS011;2803;47.916;8.074;2023-05-07T01:22:33;7.73;;;2.80;;
5559;SDS011;2803;47.916;8.074;2023-05-07T01:25:01;4.13;;;2.50;;
5559;SDS011;2803;47.916;8.074;2023-05-07T01:27:29;5.70;;;2.70;;
5559;SDS011;2803;47.916;8.074;2023-05-07T01:29:55;5.17;;;2.90;;
5559;SDS011;2803;47.916;8.074;2023-05-07T01:32:23;3.90;;;2.47;;
5559;SDS011;2803;47.916;8.074;2023-05-07T01:34:53;5.87;;;2.60;;
5559;SDS011;2803;47.916;8.074;2023-05-07T01:37:21;7.40;;;3.10;;
5559;SDS011;2803;47.916;8.074;2023-05-07T01:39:50;3.07;;;2.60;;
5559;SDS011;2803;47.916;8.074;2023-05-07T01:42:17;6.10;;;2.70;;
5559;SDS011;2803;47.916;8.074;2023-05-07T01:44:44;9.03;;;2.93;;
5559;SDS011;2803;47.916;8.074;2023-05-07T01:47:11;9.33;;;2.70;;
5559;SDS011;2803;47.916;8.074;2023-05-07T01:49:38;3.63;;;2.67;;
5559;SDS011;2803;47.916;8.074;2023-05-07T01:52:05;4.67;;;2.70;;
5559;SDS011;2803;47.916;8.074;2023-05-07T01:54:32;5.30;;;2.27;;
5559;SDS011;2803;47.916;8.074;2023-05-07T01:57:00;5.57;;;2.40;;
5559;SDS011;2803;47.916;8.074;2023-05-07T01:59:26;3.37;;;2.37;;
5559;SDS011;2803;47.916;8.074;2023-05-07T02:01:53;4.43;;;2.17;;
5559;SDS011;2803;47.916;8.074;2023-05-07T02:04:20;4.80;;;2.60;;
5559;SDS011;2803;47.916;8.074;2023-05-07T02:06:46;5.70;;;2.57;;
5559;SDS011;2803;47.916;8.074;2023-05-07T02:09:13;3.87;;;2.30;;
5559;SDS011;2803;47.916;8.074;2023-05-07T02:11:41;4.27;;;2.30;;
5559;SDS011;2803;47.916;8.074;2023-05-07T02:14:09;4.87;;;2.33;;
5559;SDS011;2803;47.916;8.074;2023-05-07T02:16:35;3.00;;;2.67;;
5559;SDS011;2803;47.916;8.074;2023-05-07T02:19:02;5.27;;;2.30;;
5559;SDS011;2803;47.916;8.074;2023-05-07T02:21:28;3.43;;;2.33;;
5559;SDS011;2803;47.916;8.074;2023-05-07T02:23:55;4.60;;;2.40;;
5559;SDS011;2803;47.916;8.074;2023-05-07T02:26:22;3.00;;;2.37;;
5559;SDS011;2803;47.916;8.074;2023-05-07T02:28:48;2.40;;;2.20;;
5559;SDS011;2803;47.916;8.074;2023-05-07T02:31:17;4.97;;;2.50;;
5559;SDS011;2803;47.916;8.074;2023-05-07T02:33:43;3.83;;;2.33;;
5559;SDS011;2803;47.916;8.074;2023-05-07T02:36:10;5.60;;;2.60;;
5559;SDS011;2803;47.916;8.074;2023-05-07T02:38:38;11.20;;;3.27;;
5559;SDS011;2803;47.916;8.074;2023-05-07T02:41:04;9.50;;;3.30;;
5559;SDS011;2803;47.916;8.074;2023-05-07T02:43:31;4.60;;;2.93;;
5559;SDS011;2803;47.916;8.074;2023-05-07T02:46:01;4.93;;;3.20;;
5559;SDS011;2803;47.916;8.074;2023-05-07T02:48:29;6.30;;;3.00;;
5559;SDS011;2803;47.916;8.074;2023-05-07T02:50:56;9.03;;;2.57;;
5559;SDS011;2803;47.916;8.074;2023-05-07T02:53:23;4.97;;;3.10;;
5559;SDS011;2803;47.916;8.074;2023-05-07T02:55:51;3.20;;;2.43;;
5559;SDS011;2803;47.916;8.074;2023-05-07T02:58:17;5.93;;;2.40;;
5559;SDS011;2803;47.916;8.074;2023-05-07T03:00:44;2.53;;;2.20;;
5559;SDS011;2803;47.916;8.074;2023-05-07T03:03:11;6.03;;;2.50;;
5559;SDS011;2803;47.916;8.074;2023-05-07T03:05:39;5.57;;;2.63;;
5559;SDS011;2803;47.916;8.074;2023-05-07T03:08:06;2.97;;;2.27;;
5559;SDS011;2803;47.916;8.074;2023-05-07T03:10:33;3.87;;;2.80;;
5559;SDS011;2803;47.916;8.074;2023-05-07T03:13:00;3.80;;;2.30;;
5559;SDS011;2803;47.916;8.074;2023-05-07T03:15:27;3.30;;;2.20;;
5559;SDS011;2803;47.916;8.074;2023-05-07T03:17:53;6.77;;;2.93;;
5559;SDS011;2803;47.916;8.074;2023-05-07T03:20:20;5.40;;;2.90;;
5559;SDS011;2803;47.916;8.074;2023-05-07T03:22:48;2.50;;;2.10;;
5559;SDS011;2803;47.916;8.074;2023-05-07T03:25:15;14.00;;;2.47;;
5559;SDS011;2803;47.916;8.074;2023-05-07T03:27:41;7.23;;;3.00;;
5559;SDS011;2803;47.916;8.074;2023-05-07T03:30:08;5.87;;;2.43;;
5559;SDS011;2803;47.916;8.074;2023-05-07T03:32:36;3.87;;;2.27;;
5559;SDS011;2803;47.916;8.074;2023-05-07T03:35:02;3.87;;;3.00;;
5559;SDS011;2803;47.916;8.074;2023-05-07T03:37:29;8.03;;;2.67;;
5559;SDS011;2803;47.916;8.074;2023-05-07T03:39:57;4.60;;;2.63;;
5559;SDS011;2803;47.916;8.074;2023-05-07T03:42:24;5.03;;;2.37;;
5559;SDS011;2803;47.916;8.074;2023-05-07T03:44:51;3.93;;;2.33;;
5559;SDS011;2803;47.916;8.074;2023-05-07T03:47:17;6.33;;;2.87;;
5559;SDS011;2803;47.916;8.074;2023-05-07T03:49:44;3.30;;;2.50;;
5559;SDS011;2803;47.916;8.074;2023-05-07T03:52:10;2.90;;;2.23;;
5559;SDS011;2803;47.916;8.074;2023-05-07T03:54:37;4.27;;;2.70;;
5559;SDS011;2803;47.916;8.074;2023-05-07T03:57:05;4.27;;;3.23;;
5559;SDS011;2803;47.916;8.074;2023-05-07T03:59:31;9.53;;;2.90;;
5559;SDS011;2803;47.916;8.074;2023-05-07T04:01:58;4.83;;;2.80;;
5559;SDS011;2803;47.916;8.074;2023-05-07T04:04:25;3.97;;;2.53;;
5559;SDS011;2803;47.916;8.074;2023-05-07T04:06:51;3.20;;;2.43;;
5559;SDS011;2803;47.916;8.074;2023-05-07T04:09:18;3.47;;;3.17;;
5559;SDS011;2803;47.916;8.074;2023-05-07T04:11:44;16.30;;;3.43;;
5559;SDS011;2803;47.916;8.074;2023-05-07T04:14:12;6.47;;;3.10;;
5559;SDS011;2803;47.916;8.074;2023-05-07T04:16:39;5.27;;;3.30;;
5559;SDS011;2803;47.916;8.074;2023-05-07T04:19:06;5.73;;;3.20;;
5559;SDS011;2803;47.916;8.074;2023-05-07T04:21:32;4.13;;;2.40;;
5559;SDS011;2803;47.916;8.074;2023-05-07T04:23:59;6.27;;;2.90;;
5559;SDS011;2803;47.916;8.074;2023-05-07T04:26:26;5.13;;;2.77;;
5559;SDS011;2803;47.916;8.074;2023-05-07T04:28:53;5.47;;;2.40;;
5559;SDS011;2803;47.916;8.074;2023-05-07T04:31:21;8.10;;;2.90;;
5559;SDS011;2803;47.916;8.074;2023-05-07T04:33:47;5.77;;;2.80;;
5559;SDS011;2803;47.916;8.074;2023-05-07T04:36:15;5.13;;;2.77;;
5559;SDS011;2803;47.916;8.074;2023-05-07T04:38:42;4.60;;;3.17;;
5559;SDS011;2803;47.916;8.074;2023-05-07T04:41:09;3.60;;;2.53;;
5559;SDS011;2803;47.916;8.074;2023-05-07T04:43:38;6.00;;;2.70;;
5559;SDS011;2803;47.916;8.074;2023-05-07T04:46:06;3.87;;;2.43;;
5559;SDS011;2803;47.916;8.074;2023-05-07T04:48:34;3.03;;;2.67;;
5559;SDS011;2803;47.916;8.074;2023-05-07T04:51:01;4.57;;;2.90;;
5559;SDS011;2803;47.916;8.074;2023-05-07T04:53:28;5.33;;;3.00;;
5559;SDS011;2803;47.916;8.074;2023-05-07T04:55:55;11.07;;;2.90;;
5559;SDS011;2803;47.916;8.074;2023-05-07T04:58:22;5.77;;;2.70;;
5559;SDS011;2803;47.916;8.074;2023-05-07T05:00:49;10.23;;;2.63;;
5559;SDS011;2803;47.916;8.074;2023-05-07T05:03:16;4.63;;;3.00;;
5559;SDS011;2803;47.916;8.074;2023-05-07T05:05:44;3.80;;;3.07;;
5559;SDS011;2803;47.916;8.074;2023-05-07T05:08:11;7.80;;;3.07;;
5559;SDS011;2803;47.916;8.074;2023-05-07T05:10:37;2.67;;;2.20;;
5559;SDS011;2803;47.916;8.074;2023-05-07T05:13:04;5.33;;;3.27;;
5559;SDS011;2803;47.916;8.074;2023-05-07T05:15:30;7.10;;;3.97;;
5559;SDS011;2803;47.916;8.074;2023-05-07T05:17:57;7.20;;;3.10;;
5559;SDS011;2803;47.916;8.074;2023-05-07T05:20:24;8.27;;;3.30;;
5559;SDS011;2803;47.916;8.074;2023-05-07T05:22:52;3.00;;;2.60;;
5559;SDS011;2803;47.916;8.074;2023-05-07T05:25:18;12.70;;;3.13;;
5559;SDS011;2803;47.916;8.074;2023-05-07T05:27:45;5.47;;;2.60;;
5559;SDS011;2803;47.916;8.074;2023-05-07T05:30:12;4.30;;;3.20;;
5559;SDS011;2803;47.916;8.074;2023-05-07T05:32:39;6.30;;;3.67;;
5559;SDS011;2803;47.916;8.074;2023-05-07T05:35:05;4.20;;;3.33;;
5559;SDS011;2803;47.916;8.074;2023-05-07T05:37:32;4.07;;;2.43;;
5559;SDS011;2803;47.916;8.074;2023-05-07T05:40:00;4.20;;;2.60;;
5559;SDS011;2803;47.916;8.074;2023-05-07T05:42:28;4.43;;;2.67;;
5559;SDS011;2803;47.916;8.074;2023-05-07T05:44:54;7.30;;;2.70;;
5559;SDS011;2803;47.916;8.074;2023-05-07T05:47:21;4.77;;;2.60;;
5559;SDS011;2803;47.916;8.074;2023-05-07T05:49:48;5.33;;;2.87;;
5559;SDS011;2803;47.916;8.074;2023-05-07T05:52:15;3.20;;;2.40;;
5559;SDS011;2803;47.916;8.074;2023-05-07T05:54:42;5.97;;;2.83;;
5559;SDS011;2803;47.916;8.074;2023-05-07T05:57:10;4.57;;;2.53;;
5559;SDS011;2803;47.916;8.074;2023-05-07T05:59:37;3.83;;;2.90;;
5559;SDS011;2803;47.916;8.074;2023-05-07T06:02:03;4.80;;;2.73;;
5559;SDS011;2803;47.916;8.074;2023-05-07T06:04:30;4.63;;;3.00;;
5559;SDS011;2803;47.916;8.074;2023-05-07T06:06:57;7.77;;;3.43;;
5559;SDS011;2803;47.916;8.074;2023-05-07T06:09:23;5.57;;;3.27;;
5559;SDS011;2803;47.916;8.074;2023-05-07T06:11:50;4.70;;;2.63;;
5559;SDS011;2803;47.916;8.074;2023-05-07T06:14:18;7.00;;;3.00;;
5559;SDS011;2803;47.916;8.074;2023-05-07T06:16:45;9.87;;;3.43;;
5559;SDS011;2803;47.916;8.074;2023-05-07T06:19:11;5.50;;;2.60;;
5559;SDS011;2803;47.916;8.074;2023-05-07T06:21:38;4.47;;;2.90;;
5559;SDS011;2803;47.916;8.074;2023-05-07T06:24:06;5.47;;;2.37;;
5559;SDS011;2803;47.916;8.074;2023-05-07T06:26:32;7.60;;;2.57;;
5559;SDS011;2803;47.916;8.074;2023-05-07T06:28:59;7.47;;;2.43;;
5559;SDS011;2803;47.916;8.074;2023-05-07T06:31:29;3.60;;;2.57;;
5559;SDS011;2803;47.916;8.074;2023-05-07T06:33:56;7.27;;;3.07;;
5559;SDS011;2803;47.916;8.074;2023-05-07T06:36:23;6.10;;;2.70;;
5559;SDS011;2803;47.916;8.074;2023-05-07T06:38:51;4.10;;;2.70;;
5559;SDS011;2803;47.916;8.074;2023-05-07T06:41:17;4.53;;;2.57;;
5559;SDS011;2803;47.916;8.074;2023-05-07T06:43:45;7.93;;;3.13;;
5559;SDS011;2803;47.916;8.074;2023-05-07T06:46:12;5.93;;;2.70;;
5559;SDS011;2803;47.916;8.074;2023-05-07T06:48:40;4.60;;;2.90;;
5559;SDS011;2803;47.916;8.074;2023-05-07T06:51:06;6.40;;;3.00;;
5559;SDS011;2803;47.916;8.074;2023-05-07T06:53:34;4.87;;;2.60;;
5559;SDS011;2803;47.916;8.074;2023-05-07T06:56:01;5.00;;;2.80;;
5559;SDS011;2803;47.916;8.074;2023-05-07T06:58:28;7.87;;;2.37;;
5559;SDS011;2803;47.916;8.074;2023-05-07T07:00:55;4.67;;;2.73;;
5559;SDS011;2803;47.916;8.074;2023-05-07T07:03:21;7.67;;;2.57;;
5559;SDS011;2803;47.916;8.074;2023-05-07T07:05:52;4.97;;;2.40;;
5559;SDS011;2803;47.916;8.074;2023-05-07T07:08:21;7.47;;;3.10;;
5559;SDS011;2803;47.916;8.074;2023-05-07T07:10:48;4.10;;;3.03;;
5559;SDS011;2803;47.916;8.074;2023-05-07T07:13:15;7.87;;;2.67;;
5559;SDS011;2803;47.916;8.074;2023-05-07T07:15:41;3.40;;;2.90;;
5559;SDS011;2803;47.916;8.074;2023-05-07T07:18:08;3.20;;;2.73;;
5559;SDS011;2803;47.916;8.074;2023-05-07T07:20:35;5.23;;;2.90;;
5559;SDS011;2803;47.916;8.074;2023-05-07T07:23:03;3.70;;;2.60;;
5559;SDS011;2803;47.916;8.074;2023-05-07T07:25:30;4.10;;;3.00;;
5559;SDS011;2803;47.916;8.074;2023-05-07T07:27:57;3.40;;;2.50;;
5559;SDS011;2803;47.916;8.074;2023-05-07T07:30:23;5.27;;;2.40;;
5559;SDS011;2803;47.916;8.074;2023-05-07T07:32:51;9.67;;;2.80;;
5559;SDS011;2803;47.916;8.074;2023-05-07T07:35:17;5.13;;;2.67;;
5559;SDS011;2803;47.916;8.074;2023-05-07T07:37:44;6.60;;;2.20;;
5559;SDS011;2803;47.916;8.074;2023-05-07T07:40:12;5.23;;;2.80;;
5559;SDS011;2803;47.916;8.074;2023-05-07T07:42:40;3.00;;;2.50;;
5559;SDS011;2803;47.916;8.074;2023-05-07T07:45:07;5.70;;;2.33;;
5559;SDS011;2803;47.916;8.074;2023-05-07T07:47:34;3.87;;;2.43;;
5559;SDS011;2803;47.916;8.074;2023-05-07T07:50:00;4.60;;;2.20;;
5559;SDS011;2803;47.916;8.074;2023-05-07T07:52:27;6.70;;;2.20;;
5559;SDS011;2803;47.916;8.074;2023-05-07T07:54:54;6.07;;;2.70;;
5559;SDS011;2803;47.916;8.074;2023-05-07T07:57:21;12.33;;;2.57;;
5559;SDS011;2803;47.916;8.074;2023-05-07T07:59:48;3.40;;;2.37;;
5559;SDS011;2803;47.916;8.074;2023-05-07T08:02:15;3.83;;;2.33;;
5559;SDS011;2803;47.916;8.074;2023-05-07T08:04:42;4.20;;;2.07;;
5559;SDS011;2803;47.916;8.074;2023-05-07T08:07:09;6.83;;;2.53;;
5559;SDS011;2803;47.916;8.074;2023-05-07T08:09:36;7.27;;;2.67;;
5559;SDS011;2803;47.916;8.074;2023-05-07T08:12:03;2.83;;;2.33;;
5559;SDS011;2803;47.916;8.074;2023-05-07T08:14:32;3.57;;;2.20;;
5559;SDS011;2803;47.916;8.074;2023-05-07T08:16:58;4.90;;;2.60;;
5559;SDS011;2803;47.916;8.074;2023-05-07T08:19:25;3.93;;;2.30;;
5559;SDS011;2803;47.916;8.074;2023-05-07T08:21:52;2.47;;;2.27;;
5559;SDS011;2803;47.916;8.074;2023-05-07T08:24:19;3.60;;;2.50;;
5559;SDS011;2803;47.916;8.074;2023-05-07T08:26:45;6.60;;;2.60;;
5559;SDS011;2803;47.916;8.074;2023-05-07T08:29:12;4.70;;;2.60;;
5559;SDS011;2803;47.916;8.074;2023-05-07T08:31:40;3.50;;;2.20;;
5559;SDS011;2803;47.916;8.074;2023-05-07T08:34:07;8.93;;;2.67;;
5559;SDS011;2803;47.916;8.074;2023-05-07T08:36:33;3.60;;;2.00;;
5559;SDS011;2803;47.916;8.074;2023-05-07T08:39:00;4.43;;;2.87;;
5559;SDS011;2803;47.916;8.074;2023-05-07T08:41:27;6.57;;;2.50;;
5559;SDS011;2803;47.916;8.074;2023-05-07T08:43:54;2.80;;;2.10;;
5559;SDS011;2803;47.916;8.074;2023-05-07T08:46:24;6.10;;;2.40;;
5559;SDS011;2803;47.916;8.074;2023-05-07T08:48:53;2.67;;;2.40;;
5559;SDS011;2803;47.916;8.074;2023-05-07T08:51:20;5.57;;;2.30;;
5559;SDS011;2803;47.916;8.074;2023-05-07T08:53:48;4.27;;;2.17;;
5559;SDS011;2803;47.916;8.074;2023-05-07T08:56:18;5.90;;;2.80;;
5559;SDS011;2803;47.916;8.074;2023-05-07T08:58:46;3.97;;;2.77;;
5559;SDS011;2803;47.916;8.074;2023-05-07T09:01:18;5.90;;;2.67;;
5559;SDS011;2803;47.916;8.074;2023-05-07T09:03:45;4.87;;;2.57;;
5559;SDS011;2803;47.916;8.074;2023-05-07T09:06:13;5.20;;;2.50;;
5559;SDS011;2803;47.916;8.074;2023-05-07T09:08:44;7.33;;;2.80;;
5559;SDS011;2803;47.916;8.074;2023-05-07T09:11:16;5.03;;;2.57;;
5559;SDS011;2803;47.916;8.074;2023-05-07T09:13:46;4.70;;;2.83;;
5559;SDS011;2803;47.916;8.074;2023-05-07T09:16:13;4.10;;;2.53;;
5559;SDS011;2803;47.916;8.074;2023-05-07T09:18:40;7.03;;;2.40;;
5559;SDS011;2803;47.916;8.074;2023-05-07T09:21:09;4.93;;;2.23;;
5559;SDS011;2803;47.916;8.074;2023-05-07T09:23:38;6.03;;;2.40;;
5559;SDS011;2803;47.916;8.074;2023-05-07T09:26:06;8.33;;;2.70;;
5559;SDS011;2803;47.916;8.074;2023-05-07T09:28:37;2.93;;;2.13;;
5559;SDS011;2803;47.916;8.074;2023-05-07T09:31:05;3.87;;;2.23;;
5559;SDS011;2803;47.916;8.074;2023-05-07T09:33:32;8.57;;;2.67;;
5559;SDS011;2803;47.916;8.074;2023-05-07T09:36:01;3.93;;;2.10;;
5559;SDS011;2803;47.916;8.074;2023-05-07T09:38:28;4.53;;;2.43;;
5559;SDS011;2803;47.916;8.074;2023-05-07T09:41:02;4.30;;;2.60;;
5559;SDS011;2803;47.916;8.074;2023-05-07T09:43:31;4.50;;;2.50;;
5559;SDS011;2803;47.916;8.074;2023-05-07T09:46:02;5.40;;;2.40;;
5559;SDS011;2803;47.916;8.074;2023-05-07T09:48:31;3.77;;;2.87;;
5559;SDS011;2803;47.916;8.074;2023-05-07T09:51:01;6.93;;;2.53;;
5559;SDS011;2803;47.916;8.074;2023-05-07T09:53:33;7.03;;;2.20;;
5559;SDS011;2803;47.916;8.074;2023-05-07T09:56:00;6.23;;;2.63;;
5559;SDS011;2803;47.916;8.074;2023-05-07T09:58:29;6.37;;;3.20;;
5559;SDS011;2803;47.916;8.074;2023-05-07T10:00:56;2.87;;;2.57;;
5559;SDS011;2803;47.916;8.074;2023-05-07T10:03:23;3.90;;;2.60;;
5559;SDS011;2803;47.916;8.074;2023-05-07T10:05:54;5.60;;;2.77;;
5559;SDS011;2803;47.916;8.074;2023-05-07T10:08:21;4.90;;;3.07;;
5559;SDS011;2803;47.916;8.074;2023-05-07T10:10:47;5.37;;;3.00;;
5559;SDS011;2803;47.916;8.074;2023-05-07T10:13:16;6.20;;;3.10;;
5559;SDS011;2803;47.916;8.074;2023-05-07T10:15:45;10.43;;;3.40;;
5559;SDS011;2803;47.916;8.074;2023-05-07T10:18:12;9.37;;;3.80;;
5559;SDS011;2803;47.916;8.074;2023-05-07T10:20:39;19.87;;;4.60;;
5559;SDS011;2803;47.916;8.074;2023-05-07T10:23:09;8.80;;;4.93;;
5559;SDS011;2803;47.916;8.074;2023-05-07T10:25:40;8.07;;;4.40;;
5559;SDS011;2803;47.916;8.074;2023-05-07T10:28:08;6.13;;;3.30;;
5559;SDS011;2803;47.916;8.074;2023-05-07T10:30:40;13.37;;;4.67;;
5559;SDS011;2803;47.916;8.074;2023-05-07T10:33:15;7.77;;;3.70;;
5559;SDS011;2803;47.916;8.074;2023-05-07T10:35:46;7.27;;;3.10;;
5559;SDS011;2803;47.916;8.074;2023-05-07T10:38:13;7.40;;;3.73;;
5559;SDS011;2803;47.916;8.074;2023-05-07T10:40:40;11.90;;;4.40;;
5559;SDS011;2803;47.916;8.074;2023-05-07T10:43:07;11.90;;;4.13;;
5559;SDS011;2803;47.916;8.074;2023-05-07T10:45:33;7.40;;;4.13;;
5559;SDS011;2803;47.916;8.074;2023-05-07T10:48:09;21.37;;;4.67;;
5559;SDS011;2803;47.916;8.074;2023-05-07T10:50:37;7.00;;;4.23;;
5559;SDS011;2803;47.916;8.074;2023-05-07T10:55:49;6.13;;;3.33;;
5559;SDS011;2803;47.916;8.074;2023-05-07T10:58:22;5.07;;;3.27;;
5559;SDS011;2803;47.916;8.074;2023-05-07T11:00:50;7.60;;;3.33;;
5559;SDS011;2803;47.916;8.074;2023-05-07T11:03:18;5.03;;;3.00;;
5559;SDS011;2803;47.916;8.074;2023-05-07T11:05:47;5.10;;;2.20;;
5559;SDS011;2803;47.916;8.074;2023-05-07T11:08:41;19.53;;;2.63;;
5559;SDS011;2803;47.916;8.074;2023-05-07T11:11:19;3.50;;;1.93;;
5559;SDS011;2803;47.916;8.074;2023-05-07T11:13:46;6.33;;;1.80;;
5559;SDS011;2803;47.916;8.074;2023-05-07T11:16:16;11.43;;;2.10;;
5559;SDS011;2803;47.916;8.074;2023-05-07T11:18:48;3.67;;;2.20;;
5559;SDS011;2803;47.916;8.074;2023-05-07T11:21:31;2.80;;;1.80;;
5559;SDS011;2803;47.916;8.074;2023-05-07T11:23:59;3.40;;;2.00;;
5559;SDS011;2803;47.916;8.074;2023-05-07T11:26:27;7.80;;;2.00;;
5559;SDS011;2803;47.916;8.074;2023-05-07T11:28:56;6.53;;;2.40;;
5559;SDS011;2803;47.916;8.074;2023-05-07T11:31:25;4.13;;;1.93;;
5559;SDS011;2803;47.916;8.074;2023-05-07T11:33:56;4.13;;;1.93;;
5559;SDS011;2803;47.916;8.074;2023-05-07T11:36:23;2.10;;;1.63;;
5559;SDS011;2803;47.916;8.074;2023-05-07T11:38:51;4.43;;;2.13;;
5559;SDS011;2803;47.916;8.074;2023-05-07T11:41:17;4.10;;;2.03;;
5559;SDS011;2803;47.916;8.074;2023-05-07T11:43:53;3.43;;;1.87;;
5559;SDS011;2803;47.916;8.074;2023-05-07T11:46:21;3.00;;;1.90;;
5559;SDS011;2803;47.916;8.074;2023-05-07T11:48:47;2.93;;;1.93;;
5559;SDS011;2803;47.916;8.074;2023-05-07T11:51:19;6.63;;;1.90;;
5559;SDS011;2803;47.916;8.074;2023-05-07T11:53:47;5.07;;;1.83;;
5559;SDS011;2803;47.916;8.074;2023-05-07T11:56:14;5.10;;;1.90;;
5559;SDS011;2803;47.916;8.074;2023-05-07T11:58:42;4.13;;;1.73;;
5559;SDS011;2803;47.916;8.074;2023-05-07T12:01:11;5.90;;;1.90;;
5559;SDS011;2803;47.916;8.074;2023-05-07T12:03:39;2.17;;;1.60;;
5559;SDS011;2803;47.916;8.074;2023-05-07T12:06:08;6.27;;;1.60;;
5559;SDS011;2803;47.916;8.074;2023-05-07T12:08:37;5.83;;;2.27;;
5559;SDS011;2803;47.916;8.074;2023-05-07T12:11:06;2.63;;;1.60;;
5559;SDS011;2803;47.916;8.074;2023-05-07T12:13:34;3.40;;;2.13;;
5559;SDS011;2803;47.916;8.074;2023-05-07T12:16:01;3.80;;;2.03;;
5559;SDS011;2803;47.916;8.074;2023-05-07T12:18:29;3.23;;;2.00;;
5559;SDS011;2803;47.916;8.074;2023-05-07T12:20:55;4.17;;;2.00;;
5559;SDS011;2803;47.916;8.074;2023-05-07T12:23:22;2.53;;;1.93;;
5559;SDS011;2803;47.916;8.074;2023-05-07T12:25:51;5.07;;;2.00;;
5559;SDS011;2803;47.916;8.074;2023-05-07T12:28:18;6.13;;;2.07;;
5559;SDS011;2803;47.916;8.074;2023-05-07T12:30:46;5.83;;;2.00;;
5559;SDS011;2803;47.916;8.074;2023-05-07T12:33:15;2.20;;;1.90;;
5559;SDS011;2803;47.916;8.074;2023-05-07T12:35:43;7.90;;;2.00;;
5559;SDS011;2803;47.916;8.074;2023-05-07T12:38:11;4.50;;;3.00;;
5559;SDS011;2803;47.916;8.074;2023-05-07T12:40:38;4.20;;;2.03;;
5559;SDS011;2803;47.916;8.074;2023-05-07T12:43:08;4.30;;;2.60;;
5559;SDS011;2803;47.916;8.074;2023-05-07T12:45:41;2.33;;;2.07;;
5559;SDS011;2803;47.916;8.074;2023-05-07T12:48:09;4.80;;;2.93;;
5559;SDS011;2803;47.916;8.074;2023-05-07T12:50:36;7.97;;;3.13;;
5559;SDS011;2803;47.916;8.074;2023-05-07T12:53:03;5.80;;;3.20;;
5559;SDS011;2803;47.916;8.074;2023-05-07T12:55:31;5.17;;;3.23;;
5559;SDS011;2803;47.916;8.074;2023-05-07T12:58:00;5.50;;;3.33;;
5559;SDS011;2803;47.916;8.074;2023-05-07T13:00:36;4.77;;;3.10;;
5559;SDS011;2803;47.916;8.074;2023-05-07T13:03:04;6.13;;;3.27;;
5559;SDS011;2803;47.916;8.074;2023-05-07T13:05:31;14.73;;;3.53;;
5559;SDS011;2803;47.916;8.074;2023-05-07T13:07:57;8.17;;;3.13;;
5559;SDS011;2803;47.916;8.074;2023-05-07T13:10:24;9.47;;;2.90;;
5559;SDS011;2803;47.916;8.074;2023-05-07T13:12:52;5.70;;;3.10;;
5559;SDS011;2803;47.916;8.074;2023-05-07T13:15:19;4.53;;;3.00;;
5559;SDS011;2803;47.916;8.074;2023-05-07T13:17:49;6.87;;;3.17;;
5559;SDS011;2803;47.916;8.074;2023-05-07T13:20:16;10.37;;;3.73;;
5559;SDS011;2803;47.916;8.074;2023-05-07T13:22:42;5.40;;;2.90;;
5559;SDS011;2803;47.916;8.074;2023-05-07T13:25:09;7.60;;;3.50;;
5559;SDS011;2803;47.916;8.074;2023-05-07T13:27:35;10.27;;;3.60;;
5559;SDS011;2803;47.916;8.074;2023-05-07T13:30:03;9.90;;;2.87;;
5559;SDS011;2803;47.916;8.074;2023-05-07T13:32:30;5.70;;;2.20;;
5559;SDS011;2803;47.916;8.074;2023-05-07T13:34:58;21.27;;;2.67;;
5559;SDS011;2803;47.916;8.074;2023-05-07T13:37:25;18.20;;;3.17;;
5559;SDS011;2803;47.916;8.074;2023-05-07T13:39:51;9.43;;;2.63;;
5559;SDS011;2803;47.916;8.074;2023-05-07T13:42:18;15.17;;;3.60;;
5559;SDS011;2803;47.916;8.074;2023-05-07T13:44:45;11.60;;;3.70;;
5559;SDS011;2803;47.916;8.074;2023-05-07T13:47:11;17.53;;;3.30;;
5559;SDS011;2803;47.916;8.074;2023-05-07T13:49:38;8.57;;;2.33;;
5559;SDS011;2803;47.916;8.074;2023-05-07T13:52:06;8.43;;;2.30;;
5559;SDS011;2803;47.916;8.074;2023-05-07T13:54:32;13.63;;;3.00;;
5559;SDS011;2803;47.916;8.074;2023-05-07T13:56:59;5.27;;;2.77;;
5559;SDS011;2803;47.916;8.074;2023-05-07T13:59:26;9.80;;;2.90;;
5559;SDS011;2803;47.916;8.074;2023-05-07T14:01:53;6.63;;;2.70;;
5559;SDS011;2803;47.916;8.074;2023-05-07T14:04:20;9.60;;;2.60;;
5559;SDS011;2803;47.916;8.074;2023-05-07T14:06:46;10.57;;;2.43;;
5559;SDS011;2803;47.916;8.074;2023-05-07T14:09:14;5.77;;;1.93;;
5559;SDS011;2803;47.916;8.074;2023-05-07T14:11:41;4.80;;;2.37;;
5559;SDS011;2803;47.916;8.074;2023-05-07T14:14:08;5.40;;;2.63;;
5559;SDS011;2803;47.916;8.074;2023-05-07T14:16:35;9.43;;;2.87;;
5559;SDS011;2803;47.916;8.074;2023-05-07T14:19:02;8.87;;;2.90;;
5559;SDS011;2803;47.916;8.074;2023-05-07T14:21:29;5.23;;;2.37;;
5559;SDS011;2803;47.916;8.074;2023-05-07T14:23:56;17.90;;;2.53;;
5559;SDS011;2803;47.916;8.074;2023-05-07T14:26:24;7.13;;;2.80;;
5559;SDS011;2803;47.916;8.074;2023-05-07T14:28:51;4.70;;;2.27;;
5559;SDS011;2803;47.916;8.074;2023-05-07T14:31:19;4.53;;;2.30;;
5559;SDS011;2803;47.916;8.074;2023-05-07T14:33:46;8.90;;;2.60;;
5559;SDS011;2803;47.916;8.074;2023-05-07T14:36:14;2.53;;;2.23;;
5559;SDS011;2803;47.916;8.074;2023-05-07T14:38:41;8.60;;;2.30;;
5559;SDS011;2803;47.916;8.074;2023-05-07T14:41:07;8.83;;;1.97;;
5559;SDS011;2803;47.916;8.074;2023-05-07T14:43:35;4.43;;;1.90;;
5559;SDS011;2803;47.916;8.074;2023-05-07T14:46:02;5.33;;;2.03;;
5559;SDS011;2803;47.916;8.074;2023-05-07T14:48:29;6.30;;;1.93;;
5559;SDS011;2803;47.916;8.074;2023-05-07T14:50:56;7.40;;;2.60;;
5559;SDS011;2803;47.916;8.074;2023-05-07T14:53:22;4.87;;;1.87;;
5559;SDS011;2803;47.916;8.074;2023-05-07T14:55:49;9.30;;;1.80;;
5559;SDS011;2803;47.916;8.074;2023-05-07T14:58:15;5.63;;;2.00;;
5559;SDS011;2803;47.916;8.074;2023-05-07T15:00:43;3.07;;;1.90;;
5559;SDS011;2803;47.916;8.074;2023-05-07T15:03:10;7.80;;;2.30;;
5559;SDS011;2803;47.916;8.074;2023-05-07T15:05:38;2.10;;;1.90;;
5559;SDS011;2803;47.916;8.074;2023-05-07T15:08:04;2.80;;;2.27;;
5559;SDS011;2803;47.916;8.074;2023-05-07T15:10:34;3.80;;;2.67;;
5559;SDS011;2803;47.916;8.074;2023-05-07T15:13:05;3.83;;;2.73;;
5559;SDS011;2803;47.916;8.074;2023-05-07T15:15:32;5.73;;;3.90;;
5559;SDS011;2803;47.916;8.074;2023-05-07T15:18:00;6.20;;;4.30;;
5559;SDS011;2803;47.916;8.074;2023-05-07T15:20:27;5.50;;;3.60;;